sensor_id;sensor_type;location;lat;lon;timestamp;pressure;altitude;pressure_sealevel;temperature;humidity
71889;BME280;59762;49.998;14.858;2022-09-13T00:01:41;97162.94;;;10.95;100.00
71889;BME280;59762;49.998;14.858;2022-09-13T00:04:06;97162.50;;;10.98;100.00
71889;BME280;59762;49.998;14.858;2022-09-13T00:06:33;97165.75;;;11.00;100.00
71889;BME280;59762;49.998;14.858;2022-09-13T00:08:59;97156.94;;;11.00;100.00
71889;BME280;59762;49.998;14.858;2022-09-13T00:11:27;97153.47;;;10.99;100.00
71889;BME280;59762;49.998;14.858;2022-09-13T00:13:56;97152.66;;;10.99;100.00
71889;BME280;59762;49.998;14.858;2022-09-13T00:16:25;97144.66;;;10.99;100.00
71889;BME280;59762;49.998;14.858;2022-09-13T00:18:52;97139.75;;;10.96;100.00
71889;BME280;59762;49.998;14.858;2022-09-13T00:21:19;97140.44;;;10.91;100.00
71889;BME280;59762;49.998;14.858;2022-09-13T00:23:47;97146.56;;;10.92;100.00
71889;BME280;59762;49.998;14.858;2022-09-13T00:26:17;97136.16;;;10.90;100.00
71889;BME280;59762;49.998;14.858;2022-09-13T00:28:43;97136.16;;;10.90;100.00
71889;BME280;59762;49.998;14.858;2022-09-13T00:31:12;97135.53;;;10.88;100.00
71889;BME280;59762;49.998;14.858;2022-09-13T00:33:37;97139.25;;;10.87;100.00
71889;BME280;59762;49.998;14.858;2022-09-13T00:36:04;97136.34;;;10.89;100.00
71889;BME280;59762;49.998;14.858;2022-09-13T00:38:31;97138.81;;;10.90;100.00
71889;BME280;59762;49.998;14.858;2022-09-13T00:40:56;97131.63;;;10.91;100.00
71889;BME280;59762;49.998;14.858;2022-09-13T00:43:41;97124.44;;;10.91;100.00
71889;BME280;59762;49.998;14.858;2022-09-13T00:46:07;97123.63;;;10.91;100.00
71889;BME280;59762;49.998;14.858;2022-09-13T00:48:35;97122.81;;;10.90;100.00
71889;BME280;59762;49.998;14.858;2022-09-13T00:51:01;97119.13;;;10.91;100.00
71889;BME280;59762;49.998;14.858;2022-09-13T00:53:30;97119.13;;;10.91;100.00
71889;BME280;59762;49.998;14.858;2022-09-13T00:56:09;97107.88;;;10.89;100.00
71889;BME280;59762;49.998;14.858;2022-09-13T00:58:44;97114.31;;;10.81;100.00
71889;BME280;59762;49.998;14.858;2022-09-13T01:01:13;97109.06;;;10.75;100.00
71889;BME280;59762;49.998;14.858;2022-09-13T01:03:41;97104.63;;;10.69;100.00
71889;BME280;59762;49.998;14.858;2022-09-13T01:06:17;97105.31;;;10.64;100.00
71889;BME280;59762;49.998;14.858;2022-09-13T01:08:47;97103.31;;;10.59;100.00
71889;BME280;59762;49.998;14.858;2022-09-13T01:11:23;97108.03;;;10.57;100.00
71889;BME280;59762;49.998;14.858;2022-09-13T01:13:53;97104.34;;;10.58;100.00
71889;BME280;59762;49.998;14.858;2022-09-13T01:16:20;97102.94;;;10.56;100.00
71889;BME280;59762;49.998;14.858;2022-09-13T01:18:46;97102.56;;;10.52;100.00
71889;BME280;59762;49.998;14.858;2022-09-13T01:27:10;97092.81;;;10.46;100.00
71889;BME280;59762;49.998;14.858;2022-09-13T01:44:20;97080.84;;;10.37;100.00
71889;BME280;59762;49.998;14.858;2022-09-13T01:47:04;97073.88;;;10.36;100.00
71889;BME280;59762;49.998;14.858;2022-09-13T01:49:45;97074.31;;;10.33;100.00
71889;BME280;59762;49.998;14.858;2022-09-13T01:55:12;97074.91;;;10.35;100.00
71889;BME280;59762;49.998;14.858;2022-09-13T02:00:42;97067.53;;;10.37;100.00
71889;BME280;59762;49.998;14.858;2022-09-13T02:03:19;97062.88;;;10.32;100.00
71889;BME280;59762;49.998;14.858;2022-09-13T02:05:52;97058.78;;;10.30;100.00
71889;BME280;59762;49.998;14.858;2022-09-13T02:08:31;97063.31;;;10.29;100.00
71889;BME280;59762;49.998;14.858;2022-09-13T02:11:07;97058.78;;;10.30;100.00
71889;BME280;59762;49.998;14.858;2022-09-13T02:13:41;97050.00;;;10.29;100.00
71889;BME280;59762;49.998;14.858;2022-09-13T02:16:17;97048.75;;;10.32;100.00
71889;BME280;59762;49.998;14.858;2022-09-13T02:18:52;97049.75;;;10.31;100.00
71889;BME280;59762;49.998;14.858;2022-09-13T02:21:24;97047.94;;;10.31;100.00
71889;BME280;59762;49.998;14.858;2022-09-13T02:24:02;97047.31;;;10.29;100.00
71889;BME280;59762;49.998;14.858;2022-09-13T02:26:30;97047.09;;;10.31;100.00
71889;BME280;59762;49.998;14.858;2022-09-13T02:29:01;97044.66;;;10.29;100.00
71889;BME280;59762;49.998;14.858;2022-09-13T02:31:48;97035.63;;;10.30;100.00
71889;BME280;59762;49.998;14.858;2022-09-13T02:34:20;97033.44;;;10.27;100.00
71889;BME280;59762;49.998;14.858;2022-09-13T02:36:48;97032.59;;;10.27;100.00
71889;BME280;59762;49.998;14.858;2022-09-13T02:39:16;97029.38;;;10.25;100.00
71889;BME280;59762;49.998;14.858;2022-09-13T02:44:15;97024.44;;;10.22;100.00
71889;BME280;59762;49.998;14.858;2022-09-13T02:52:15;97024.31;;;10.17;100.00
71889;BME280;59762;49.998;14.858;2022-09-13T02:57:29;97017.22;;;10.10;100.00
71889;BME280;59762;49.998;14.858;2022-09-13T02:59:58;97018.84;;;10.11;100.00
71889;BME280;59762;49.998;14.858;2022-09-13T03:02:28;97016.75;;;10.14;100.00
71889;BME280;59762;49.998;14.858;2022-09-13T03:04:58;97018.84;;;10.11;100.00
71889;BME280;59762;49.998;14.858;2022-09-13T03:07:23;97019.41;;;10.14;100.00
71889;BME280;59762;49.998;14.858;2022-09-13T03:09:53;97011.88;;;10.10;100.00
71889;BME280;59762;49.998;14.858;2022-09-13T03:17:44;97009.66;;;10.07;100.00
71889;BME280;59762;49.998;14.858;2022-09-13T03:20:24;97007.22;;;10.06;100.00
71889;BME280;59762;49.998;14.858;2022-09-13T03:31:08;97006.25;;;10.00;100.00
71889;BME280;59762;49.998;14.858;2022-09-13T03:33:43;97000.34;;;9.98;100.00
71889;BME280;59762;49.998;14.858;2022-09-13T03:36:17;97001.59;;;9.96;100.00
71889;BME280;59762;49.998;14.858;2022-09-13T03:38:59;96996.50;;;9.94;100.00
71889;BME280;59762;49.998;14.858;2022-09-13T03:41:35;97004.72;;;9.93;100.00
71889;BME280;59762;49.998;14.858;2022-09-13T03:44:07;96997.97;;;9.90;100.00
71889;BME280;59762;49.998;14.858;2022-09-13T03:46:40;96997.41;;;9.88;100.00
71889;BME280;59762;49.998;14.858;2022-09-13T03:49:10;97013.94;;;9.90;100.00
71889;BME280;59762;49.998;14.858;2022-09-13T03:51:37;97001.06;;;9.87;100.00
71889;BME280;59762;49.998;14.858;2022-09-13T03:54:07;97002.09;;;9.86;100.00
71889;BME280;59762;49.998;14.858;2022-09-13T03:56:35;97009.06;;;9.87;100.00
71889;BME280;59762;49.998;14.858;2022-09-13T03:59:00;97013.56;;;9.86;100.00
71889;BME280;59762;49.998;14.858;2022-09-13T04:01:26;97024.00;;;9.88;100.00
71889;BME280;59762;49.998;14.858;2022-09-13T04:03:52;97019.09;;;9.85;100.00
71889;BME280;59762;49.998;14.858;2022-09-13T04:06:18;97023.63;;;9.84;100.00
71889;BME280;59762;49.998;14.858;2022-09-13T04:08:44;97029.16;;;9.83;100.00
71889;BME280;59762;49.998;14.858;2022-09-13T04:11:09;97030.19;;;9.82;100.00
71889;BME280;59762;49.998;14.858;2022-09-13T04:13:36;97034.50;;;9.83;100.00
71889;BME280;59762;49.998;14.858;2022-09-13T04:16:04;97025.25;;;9.85;100.00
71889;BME280;59762;49.998;14.858;2022-09-13T04:18:31;97026.06;;;9.86;100.00
71889;BME280;59762;49.998;14.858;2022-09-13T04:20:58;97026.84;;;9.86;100.00
71889;BME280;59762;49.998;14.858;2022-09-13T04:23:25;97023.19;;;9.88;100.00
71889;BME280;59762;49.998;14.858;2022-09-13T04:25:51;97026.84;;;9.86;100.00
71889;BME280;59762;49.998;14.858;2022-09-13T04:28:20;97016.69;;;9.83;100.00
71889;BME280;59762;49.998;14.858;2022-09-13T04:30:47;97023.63;;;9.84;100.00
71889;BME280;59762;49.998;14.858;2022-09-13T04:33:13;97027.91;;;9.85;100.00
71889;BME280;59762;49.998;14.858;2022-09-13T04:35:39;97027.91;;;9.85;100.00
71889;BME280;59762;49.998;14.858;2022-09-13T04:38:06;97011.72;;;9.87;100.00
71889;BME280;59762;49.998;14.858;2022-09-13T04:40:32;97008.84;;;9.89;100.00
71889;BME280;59762;49.998;14.858;2022-09-13T04:43:00;97007.44;;;10.04;100.00
71889;BME280;59762;49.998;14.858;2022-09-13T04:45:25;97012.78;;;10.41;100.00
71889;BME280;59762;49.998;14.858;2022-09-13T04:47:52;97007.44;;;10.59;100.00
71889;BME280;59762;49.998;14.858;2022-09-13T04:50:22;96996.31;;;10.93;100.00
71889;BME280;59762;49.998;14.858;2022-09-13T04:52:49;96996.28;;;11.34;100.00
71889;BME280;59762;49.998;14.858;2022-09-13T04:55:15;96998.75;;;11.48;98.45
71889;BME280;59762;49.998;14.858;2022-09-13T04:57:41;96990.03;;;11.41;97.95
71889;BME280;59762;49.998;14.858;2022-09-13T05:00:07;96989.84;;;11.00;100.00
71889;BME280;59762;49.998;14.858;2022-09-13T05:02:33;96995.81;;;10.84;100.00
71889;BME280;59762;49.998;14.858;2022-09-13T05:04:59;96989.09;;;10.81;100.00
71889;BME280;59762;49.998;14.858;2022-09-13T05:07:25;96993.63;;;10.81;100.00
71889;BME280;59762;49.998;14.858;2022-09-13T05:09:51;96992.44;;;10.77;100.00
71889;BME280;59762;49.998;14.858;2022-09-13T05:12:16;96985.44;;;10.64;100.00
71889;BME280;59762;49.998;14.858;2022-09-13T05:14:42;96985.41;;;10.52;100.00
71889;BME280;59762;49.998;14.858;2022-09-13T05:17:07;96987.00;;;10.53;100.00
71889;BME280;59762;49.998;14.858;2022-09-13T05:19:33;96985.19;;;10.54;100.00
71889;BME280;59762;49.998;14.858;2022-09-13T05:22:00;96979.38;;;10.57;100.00
71889;BME280;59762;49.998;14.858;2022-09-13T05:24:25;96982.78;;;10.64;100.00
71889;BME280;59762;49.998;14.858;2022-09-13T05:26:51;96977.16;;;10.72;100.00
71889;BME280;59762;49.998;14.858;2022-09-13T05:29:16;96978.34;;;10.88;100.00
71889;BME280;59762;49.998;14.858;2022-09-13T05:31:42;96974.25;;;11.16;100.00
71889;BME280;59762;49.998;14.858;2022-09-13T05:34:10;96966.75;;;11.83;98.41
71889;BME280;59762;49.998;14.858;2022-09-13T05:36:37;96962.94;;;12.31;94.45
71889;BME280;59762;49.998;14.858;2022-09-13T05:39:04;96967.41;;;12.54;92.67
71889;BME280;59762;49.998;14.858;2022-09-13T05:41:30;96977.28;;;12.53;91.54
71889;BME280;59762;49.998;14.858;2022-09-13T05:43:56;96986.81;;;12.49;91.72
71889;BME280;59762;49.998;14.858;2022-09-13T05:46:22;96995.75;;;12.43;91.84
71889;BME280;59762;49.998;14.858;2022-09-13T05:48:48;96995.03;;;12.48;91.87
71889;BME280;59762;49.998;14.858;2022-09-13T05:51:21;97007.25;;;12.44;91.84
71889;BME280;59762;49.998;14.858;2022-09-13T05:53:51;96998.78;;;12.35;92.67
71889;BME280;59762;49.998;14.858;2022-09-13T05:56:19;96997.84;;;12.41;93.52
71889;BME280;59762;49.998;14.858;2022-09-13T05:58:47;97000.44;;;12.36;93.49
71889;BME280;59762;49.998;14.858;2022-09-13T06:01:15;96989.25;;;12.39;93.24
71889;BME280;59762;49.998;14.858;2022-09-13T06:03:41;96990.19;;;12.45;94.04
71889;BME280;59762;49.998;14.858;2022-09-13T06:06:08;96995.84;;;12.48;93.36
71889;BME280;59762;49.998;14.858;2022-09-13T06:08:34;96984.78;;;12.56;93.89
71889;BME280;59762;49.998;14.858;2022-09-13T06:11:06;96995.56;;;12.61;94.27
71889;BME280;59762;49.998;14.858;2022-09-13T06:13:33;97001.75;;;12.62;92.85
71889;BME280;59762;49.998;14.858;2022-09-13T06:16:00;96992.38;;;12.76;92.57
71889;BME280;59762;49.998;14.858;2022-09-13T06:18:27;96994.69;;;12.84;91.96
71889;BME280;59762;49.998;14.858;2022-09-13T06:20:59;96995.41;;;12.97;93.13
71889;BME280;59762;49.998;14.858;2022-09-13T06:23:26;96989.13;;;13.03;91.18
71889;BME280;59762;49.998;14.858;2022-09-13T06:26:19;96982.47;;;13.05;91.50
71889;BME280;59762;49.998;14.858;2022-09-13T06:28:50;96979.19;;;13.15;91.29
71889;BME280;59762;49.998;14.858;2022-09-13T06:31:19;96980.72;;;13.45;90.25
71889;BME280;59762;49.998;14.858;2022-09-13T06:33:45;96983.53;;;13.72;88.26
71889;BME280;59762;49.998;14.858;2022-09-13T06:36:13;96971.00;;;13.94;86.65
71889;BME280;59762;49.998;14.858;2022-09-13T06:38:40;96970.34;;;14.04;86.73
71889;BME280;59762;49.998;14.858;2022-09-13T06:41:12;96964.69;;;14.22;86.35
71889;BME280;59762;49.998;14.858;2022-09-13T06:43:38;96962.38;;;14.31;86.00
71889;BME280;59762;49.998;14.858;2022-09-13T06:46:12;96968.19;;;14.23;85.67
71889;BME280;59762;49.998;14.858;2022-09-13T06:48:40;96966.41;;;14.11;87.37
71889;BME280;59762;49.998;14.858;2022-09-13T06:51:09;96964.69;;;14.00;88.36
71889;BME280;59762;49.998;14.858;2022-09-13T06:53:36;96975.41;;;14.00;88.65
71889;BME280;59762;49.998;14.858;2022-09-13T06:56:07;96974.72;;;14.10;88.68
71889;BME280;59762;49.998;14.858;2022-09-13T06:58:35;96969.69;;;14.13;87.40
71889;BME280;59762;49.998;14.858;2022-09-13T07:03:47;96977.78;;;14.19;89.08
71889;BME280;59762;49.998;14.858;2022-09-13T07:06:16;96966.50;;;14.17;87.55
71889;BME280;59762;49.998;14.858;2022-09-13T07:08:43;96965.75;;;14.21;87.52
71889;BME280;59762;49.998;14.858;2022-09-13T07:11:10;96970.66;;;14.29;86.89
71889;BME280;59762;49.998;14.858;2022-09-13T07:13:36;96970.09;;;14.27;86.56
71889;BME280;59762;49.998;14.858;2022-09-13T07:16:10;96973.47;;;14.39;87.14
71889;BME280;59762;49.998;14.858;2022-09-13T07:18:36;96968.19;;;14.45;86.94
71889;BME280;59762;49.998;14.858;2022-09-13T07:21:06;96969.16;;;14.60;85.97
71889;BME280;59762;49.998;14.858;2022-09-13T07:23:34;96962.28;;;14.70;84.98
71889;BME280;59762;49.998;14.858;2022-09-13T07:26:01;96979.41;;;14.91;85.11
71889;BME280;59762;49.998;14.858;2022-09-13T07:28:39;96975.84;;;15.12;83.76
71889;BME280;59762;49.998;14.858;2022-09-13T07:31:14;96986.41;;;15.19;83.72
71889;BME280;59762;49.998;14.858;2022-09-13T07:33:41;96980.41;;;15.11;83.32
71889;BME280;59762;49.998;14.858;2022-09-13T07:36:08;96975.34;;;15.15;84.95
71889;BME280;59762;49.998;14.858;2022-09-13T07:38:35;96978.34;;;15.19;84.59
71889;BME280;59762;49.998;14.858;2022-09-13T07:41:01;96983.88;;;15.39;84.92
71889;BME280;59762;49.998;14.858;2022-09-13T07:43:29;96981.25;;;15.49;83.06
71889;BME280;59762;49.998;14.858;2022-09-13T07:45:59;96980.81;;;15.62;82.65
71889;BME280;59762;49.998;14.858;2022-09-13T07:48:26;96986.09;;;15.84;82.30
71889;BME280;59762;49.998;14.858;2022-09-13T07:51:06;96978.44;;;16.03;83.04
71889;BME280;59762;49.998;14.858;2022-09-13T07:53:34;96975.28;;;16.17;81.85
71889;BME280;59762;49.998;14.858;2022-09-13T07:58:34;96973.69;;;16.26;79.92
71889;BME280;59762;49.998;14.858;2022-09-13T08:01:24;96979.38;;;16.34;78.71
71889;BME280;59762;49.998;14.858;2022-09-13T08:03:55;96975.63;;;16.35;79.56
71889;BME280;59762;49.998;14.858;2022-09-13T08:06:22;96977.00;;;16.48;79.88
71889;BME280;59762;49.998;14.858;2022-09-13T08:08:48;96963.59;;;16.53;78.33
71889;BME280;59762;49.998;14.858;2022-09-13T08:11:18;96973.81;;;16.56;77.95
71889;BME280;59762;49.998;14.858;2022-09-13T08:13:45;96973.28;;;16.59;78.25
71889;BME280;59762;49.998;14.858;2022-09-13T08:16:11;96974.38;;;16.69;77.70
71889;BME280;59762;49.998;14.858;2022-09-13T08:18:42;96970.06;;;16.57;75.65
71889;BME280;59762;49.998;14.858;2022-09-13T08:21:07;96967.91;;;16.59;76.49
71889;BME280;59762;49.998;14.858;2022-09-13T08:23:33;96970.88;;;16.63;78.45
71889;BME280;59762;49.998;14.858;2022-09-13T08:26:00;96975.78;;;16.76;76.24
71889;BME280;59762;49.998;14.858;2022-09-13T08:28:27;96973.13;;;16.92;75.50
71889;BME280;59762;49.998;14.858;2022-09-13T08:30:53;96978.81;;;17.10;75.23
71889;BME280;59762;49.998;14.858;2022-09-13T08:33:18;96976.66;;;17.28;74.51
71889;BME280;59762;49.998;14.858;2022-09-13T08:35:51;96977.72;;;17.52;75.07
71889;BME280;59762;49.998;14.858;2022-09-13T08:38:17;96976.63;;;17.84;75.11
71889;BME280;59762;49.998;14.858;2022-09-13T08:40:56;96972.50;;;18.27;72.60
71889;BME280;59762;49.998;14.858;2022-09-13T08:46:04;96972.19;;;18.94;65.93
71889;BME280;59762;49.998;14.858;2022-09-13T08:48:35;96981.63;;;18.96;67.13
71889;BME280;59762;49.998;14.858;2022-09-13T08:51:06;96982.47;;;18.92;68.84
71889;BME280;59762;49.998;14.858;2022-09-13T08:53:42;96981.25;;;18.58;67.00
71889;BME280;59762;49.998;14.858;2022-09-13T08:56:28;96972.72;;;18.46;64.83
71889;BME280;59762;49.998;14.858;2022-09-13T09:07:36;96982.13;;;19.03;61.08
71889;BME280;59762;49.998;14.858;2022-09-13T09:10:10;96976.28;;;18.91;61.34
71889;BME280;59762;49.998;14.858;2022-09-13T09:12:41;96984.50;;;18.60;63.29
71889;BME280;59762;49.998;14.858;2022-09-13T09:15:26;96973.13;;;18.63;64.43
71889;BME280;59762;49.998;14.858;2022-09-13T09:18:08;96975.38;;;18.51;64.47
71889;BME280;59762;49.998;14.858;2022-09-13T09:20:41;96978.34;;;18.45;65.91
71889;BME280;59762;49.998;14.858;2022-09-13T09:26:19;96977.28;;;18.46;63.76
71889;BME280;59762;49.998;14.858;2022-09-13T09:29:04;96970.41;;;18.79;64.58
71889;BME280;59762;49.998;14.858;2022-09-13T09:37:38;96956.50;;;19.69;58.90
71889;BME280;59762;49.998;14.858;2022-09-13T09:40:08;96957.84;;;19.72;59.71
71889;BME280;59762;49.998;14.858;2022-09-13T09:42:46;96944.97;;;19.58;59.65
71889;BME280;59762;49.998;14.858;2022-09-13T09:45:32;96937.66;;;19.64;61.56
71889;BME280;59762;49.998;14.858;2022-09-13T09:48:04;96928.78;;;19.58;60.92
71889;BME280;59762;49.998;14.858;2022-09-13T09:50:34;96935.00;;;19.25;60.62
71889;BME280;59762;49.998;14.858;2022-09-13T09:53:30;96925.75;;;19.36;61.77
71889;BME280;59762;49.998;14.858;2022-09-13T09:56:05;96924.63;;;19.37;60.69
71889;BME280;59762;49.998;14.858;2022-09-13T09:58:39;96922.44;;;19.44;62.53
71889;BME280;59762;49.998;14.858;2022-09-13T10:01:30;96924.09;;;19.69;65.35
71889;BME280;59762;49.998;14.858;2022-09-13T10:04:02;96925.13;;;19.73;63.61
71889;BME280;59762;49.998;14.858;2022-09-13T10:06:30;96929.31;;;19.89;60.80
71889;BME280;59762;49.998;14.858;2022-09-13T10:08:59;96921.31;;;19.79;61.59
71889;BME280;59762;49.998;14.858;2022-09-13T10:11:45;96917.31;;;19.72;61.70
71889;BME280;59762;49.998;14.858;2022-09-13T10:14:31;96923.53;;;19.72;62.49
71889;BME280;59762;49.998;14.858;2022-09-13T10:17:27;96912.19;;;19.41;63.22
71889;BME280;59762;49.998;14.858;2022-09-13T10:19:58;96910.19;;;19.23;64.96
71889;BME280;59762;49.998;14.858;2022-09-13T10:22:27;96908.72;;;19.35;67.30
71889;BME280;59762;49.998;14.858;2022-09-13T10:24:54;96911.44;;;19.01;64.79
71889;BME280;59762;49.998;14.858;2022-09-13T10:27:35;96899.88;;;18.96;68.26
71889;BME280;59762;49.998;14.858;2022-09-13T10:30:04;96896.16;;;18.86;65.66
71889;BME280;59762;49.998;14.858;2022-09-13T10:32:31;96893.69;;;18.95;64.78
71889;BME280;59762;49.998;14.858;2022-09-13T10:35:06;96888.94;;;19.11;65.19
71889;BME280;59762;49.998;14.858;2022-09-13T10:37:33;96891.44;;;19.65;64.06
71889;BME280;59762;49.998;14.858;2022-09-13T10:43:06;96887.91;;;20.37;63.05
71889;BME280;59762;49.998;14.858;2022-09-13T10:45:39;96893.25;;;20.42;60.89
71889;BME280;59762;49.998;14.858;2022-09-13T10:48:15;96885.56;;;20.54;62.66
71889;BME280;59762;49.998;14.858;2022-09-13T10:50:59;96882.78;;;20.59;61.82
71889;BME280;59762;49.998;14.858;2022-09-13T10:53:34;96872.97;;;20.63;59.54
71889;BME280;59762;49.998;14.858;2022-09-13T10:56:00;96874.97;;;21.09;58.46
71889;BME280;59762;49.998;14.858;2022-09-13T10:58:27;96864.78;;;21.01;58.88
71889;BME280;59762;49.998;14.858;2022-09-13T11:01:15;96863.19;;;21.00;61.15
71889;BME280;59762;49.998;14.858;2022-09-13T11:04:06;96856.56;;;20.74;56.87
71889;BME280;59762;49.998;14.858;2022-09-13T11:09:33;96852.13;;;20.02;59.65
71889;BME280;59762;49.998;14.858;2022-09-13T11:25:20;96838.47;;;19.40;62.14
71889;BME280;59762;49.998;14.858;2022-09-13T11:30:23;96841.00;;;19.56;61.95
71889;BME280;59762;49.998;14.858;2022-09-13T11:55:27;96853.38;;;20.10;64.08
71889;BME280;59762;49.998;14.858;2022-09-13T11:57:58;96840.97;;;20.28;63.03
71889;BME280;59762;49.998;14.858;2022-09-13T12:00:35;96831.50;;;20.49;63.18
71889;BME280;59762;49.998;14.858;2022-09-13T12:03:17;96839.44;;;20.40;60.58
71889;BME280;59762;49.998;14.858;2022-09-13T12:06:10;96844.25;;;20.25;62.95
71889;BME280;59762;49.998;14.858;2022-09-13T12:08:46;96834.97;;;20.31;64.63
71889;BME280;59762;49.998;14.858;2022-09-13T12:11:20;96832.91;;;20.23;62.43
71889;BME280;59762;49.998;14.858;2022-09-13T12:13:54;96821.38;;;20.36;63.89
71889;BME280;59762;49.998;14.858;2022-09-13T12:16:29;96828.56;;;20.46;62.62
71889;BME280;59762;49.998;14.858;2022-09-13T12:18:58;96818.66;;;20.36;63.44
71889;BME280;59762;49.998;14.858;2022-09-13T12:21:29;96818.50;;;20.51;64.02
71889;BME280;59762;49.998;14.858;2022-09-13T12:24:02;96808.78;;;20.50;61.79
71889;BME280;59762;49.998;14.858;2022-09-13T12:26:53;96809.19;;;20.57;62.32
71889;BME280;59762;49.998;14.858;2022-09-13T12:29:43;96810.59;;;20.55;60.96
71889;BME280;59762;49.998;14.858;2022-09-13T12:32:10;96803.78;;;20.57;61.79
71889;BME280;59762;49.998;14.858;2022-09-13T12:48:25;96783.34;;;19.71;66.27
71889;BME280;59762;49.998;14.858;2022-09-13T12:51:14;96784.47;;;19.64;66.04
71889;BME280;59762;49.998;14.858;2022-09-13T12:56:53;96784.50;;;19.59;68.10
71889;BME280;59762;49.998;14.858;2022-09-13T13:05:26;96761.50;;;20.61;67.11
71889;BME280;59762;49.998;14.858;2022-09-13T13:07:59;96764.13;;;20.99;65.92
71889;BME280;59762;49.998;14.858;2022-09-13T13:10:29;96758.97;;;21.30;65.53
71889;BME280;59762;49.998;14.858;2022-09-13T13:13:08;96758.41;;;21.47;62.25
71889;BME280;59762;49.998;14.858;2022-09-13T13:18:22;96748.03;;;21.63;58.84
71889;BME280;59762;49.998;14.858;2022-09-13T13:23:36;96745.94;;;21.74;60.54
71889;BME280;59762;49.998;14.858;2022-09-13T13:26:45;96744.66;;;21.44;60.35
71889;BME280;59762;49.998;14.858;2022-09-13T13:32:03;96737.22;;;21.35;59.34
71889;BME280;59762;49.998;14.858;2022-09-13T13:39:41;96741.72;;;21.40;60.38
71889;BME280;59762;49.998;14.858;2022-09-13T13:42:26;96743.63;;;21.53;59.69
71889;BME280;59762;49.998;14.858;2022-09-13T13:57:32;96743.19;;;21.19;62.92
71889;BME280;59762;49.998;14.858;2022-09-13T14:00:20;96735.66;;;21.15;62.84
71889;BME280;59762;49.998;14.858;2022-09-13T14:11:02;96732.72;;;20.98;63.62
71889;BME280;59762;49.998;14.858;2022-09-13T14:13:39;96733.03;;;21.10;64.10
71889;BME280;59762;49.998;14.858;2022-09-13T14:21:41;96725.88;;;20.73;58.51
71889;BME280;59762;49.998;14.858;2022-09-13T14:24:20;96723.41;;;20.58;57.26
71889;BME280;59762;49.998;14.858;2022-09-13T14:26:49;96726.66;;;20.41;58.89
71889;BME280;59762;49.998;14.858;2022-09-13T14:29:18;96723.16;;;20.22;58.76
71889;BME280;59762;49.998;14.858;2022-09-13T14:31:48;96722.53;;;20.11;58.71
71889;BME280;59762;49.998;14.858;2022-09-13T14:34:33;96718.94;;;19.97;59.20
71889;BME280;59762;49.998;14.858;2022-09-13T14:37:03;96716.50;;;19.95;61.05
71889;BME280;59762;49.998;14.858;2022-09-13T14:39:29;96711.75;;;19.87;63.45
71889;BME280;59762;49.998;14.858;2022-09-13T14:42:21;96728.59;;;19.84;64.10
71889;BME280;59762;49.998;14.858;2022-09-13T14:44:47;96711.69;;;19.92;66.43
71889;BME280;59762;49.998;14.858;2022-09-13T14:47:35;96708.06;;;20.02;64.17
71889;BME280;59762;49.998;14.858;2022-09-13T14:50:16;96711.97;;;20.09;64.11
71889;BME280;59762;49.998;14.858;2022-09-13T14:52:50;96709.22;;;20.14;63.46
71889;BME280;59762;49.998;14.858;2022-09-13T14:55:22;96697.88;;;20.12;64.34
71889;BME280;59762;49.998;14.858;2022-09-13T14:57:53;96692.69;;;20.16;64.42
71889;BME280;59762;49.998;14.858;2022-09-13T15:00:21;96683.88;;;20.10;62.61
71889;BME280;59762;49.998;14.858;2022-09-13T15:02:51;96686.94;;;20.04;63.12
71889;BME280;59762;49.998;14.858;2022-09-13T15:05:19;96686.50;;;19.97;64.56
71889;BME280;59762;49.998;14.858;2022-09-13T15:07:45;96689.34;;;19.86;63.85
71889;BME280;59762;49.998;14.858;2022-09-13T15:12:37;96702.94;;;19.62;65.72
71889;BME280;59762;49.998;14.858;2022-09-13T15:20:19;96697.09;;;19.50;68.54
71889;BME280;59762;49.998;14.858;2022-09-13T15:22:47;96693.44;;;19.41;69.77
71889;BME280;59762;49.998;14.858;2022-09-13T15:25:27;96694.31;;;19.36;68.60
71889;BME280;59762;49.998;14.858;2022-09-13T15:27:55;96690.06;;;19.30;69.14
71889;BME280;59762;49.998;14.858;2022-09-13T15:30:24;96690.34;;;19.29;68.36
71889;BME280;59762;49.998;14.858;2022-09-13T15:41:36;96694.28;;;19.18;69.92
71889;BME280;59762;49.998;14.858;2022-09-13T15:44:04;96686.97;;;19.18;68.61
71889;BME280;59762;49.998;14.858;2022-09-13T15:46:30;96682.38;;;19.19;69.85
71889;BME280;59762;49.998;14.858;2022-09-13T15:49:03;96675.94;;;19.14;71.85
71889;BME280;59762;49.998;14.858;2022-09-13T15:51:30;96678.94;;;19.13;70.45
71889;BME280;59762;49.998;14.858;2022-09-13T15:53:55;96679.81;;;19.08;69.30
71889;BME280;59762;49.998;14.858;2022-09-13T15:56:33;96681.91;;;19.11;71.12
71889;BME280;59762;49.998;14.858;2022-09-13T15:58:59;96684.91;;;19.10;73.26
71889;BME280;59762;49.998;14.858;2022-09-13T16:01:25;96679.84;;;19.03;72.22
71889;BME280;59762;49.998;14.858;2022-09-13T16:03:52;96675.03;;;19.00;72.00
71889;BME280;59762;49.998;14.858;2022-09-13T16:06:17;96670.66;;;19.04;72.38
71889;BME280;59762;49.998;14.858;2022-09-13T16:08:43;96664.16;;;19.05;71.65
71889;BME280;59762;49.998;14.858;2022-09-13T16:11:09;96664.69;;;19.07;71.78
71889;BME280;59762;49.998;14.858;2022-09-13T16:13:35;96659.50;;;19.11;72.30
71889;BME280;59762;49.998;14.858;2022-09-13T16:16:01;96656.25;;;19.14;71.57
71889;BME280;59762;49.998;14.858;2022-09-13T16:18:27;96656.47;;;19.18;71.87
71889;BME280;59762;49.998;14.858;2022-09-13T16:20:53;96661.34;;;19.15;72.13
71889;BME280;59762;49.998;14.858;2022-09-13T16:23:18;96664.34;;;19.14;73.18
71889;BME280;59762;49.998;14.858;2022-09-13T16:25:44;96666.75;;;19.15;73.24
71889;BME280;59762;49.998;14.858;2022-09-13T16:28:17;96666.75;;;19.15;72.18